Time,TemperatureF,DewpointF,PressureIn,WindDirection,WindDirectionDegrees,WindSpeedMPH,WindSpeedGustMPH,Humidity,HourlyPrecipIn,Conditions,Clouds,dailyrainin,SoftwareType,DateUTC
2013-06-02 00:09:00,71.3,28.0,29.70,SE,126,8.0,22.0,20,0.00,,,0.00,weatherlink.com 1.10,2013-06-02 06:09:00,
2013-06-02 00:24:00,71.0,28.0,29.71,East,86,14.0,20.0,20,0.00,,,0.00,weatherlink.com 1.10,2013-06-02 06:24:00,
2013-06-02 00:40:00,70.2,27.0,29.72,ESE,102,14.0,25.0,20,0.00,,,0.00,weatherlink.com 1.10,2013-06-02 06:40:00,
2013-06-02 00:55:00,69.7,28.0,29.71,East,82,11.0,21.0,21,0.00,,,0.00,weatherlink.com 1.10,2013-06-02 06:55:00,
2013-06-02 01:10:00,69.3,28.0,29.71,East,94,5.0,23.0,21,0.00,,,0.00,weatherlink.com 1.10,2013-06-02 07:10:00,
2013-06-02 01:25:00,68.5,27.0,29.71,SE,146,10.0,25.0,21,0.00,,,0.00,weatherlink.com 1.10,2013-06-02 07:25:00,
2013-06-02 01:40:00,67.9,28.0,29.70,East,85,14.0,32.0,22,0.00,,,0.00,weatherlink.com 1.10,2013-06-02 07:40:00,
2013-06-02 01:55:00,67.2,28.0,29.71,ENE,74,20.0,31.0,23,0.00,,,0.00,weatherlink.com 1.10,2013-06-02 07:55:00,
2013-06-02 02:10:00,66.8,28.0,29.71,East,82,14.0,30.0,23,0.00,,,0.00,weatherlink.com 1.10,2013-06-02 08:10:00,
2013-06-02 02:25:00,66.5,28.0,29.71,East,87,15.0,27.0,24,0.00,,,0.00,weatherlink.com 1.10,2013-06-02 08:25:00,
2013-06-02 02:40:00,66.1,28.0,29.71,ENE,71,15.0,22.0,24,0.00,,,0.00,weatherlink.com 1.10,2013-06-02 08:40:00,
2013-06-02 02:55:00,65.7,28.0,29.71,SE,125,11.0,22.0,24,0.00,,,0.00,weatherlink.com 1.10,2013-06-02 08:55:00,
2013-06-02 03:10:00,65.4,29.0,29.70,NE,52,9.0,24.0,25,0.00,,,0.00,weatherlink.com 1.10,2013-06-02 09:10:00,
2013-06-02 03:25:00,65.2,28.0,29.70,ESE,103,4.0,26.0,25,0.00,,,0.00,weatherlink.com 1.10,2013-06-02 09:25:00,
2013-06-02 03:40:00,65.0,29.0,29.70,ESE,109,12.0,26.0,26,0.00,,,0.00,weatherlink.com 1.10,2013-06-02 09:40:00,
2013-06-02 03:55:00,64.7,29.0,29.71,NE,40,15.0,24.0,26,0.00,,,0.00,weatherlink.com 1.10,2013-06-02 09:55:00,
2013-06-02 04:10:00,64.6,29.0,29.70,ENE,62,8.0,24.0,26,0.00,,,0.00,weatherlink.com 1.10,2013-06-02 10:10:00,
2013-06-02 04:25:00,64.4,29.0,29.71,NE,51,10.0,22.0,26,0.00,,,0.00,weatherlink.com 1.10,2013-06-02 10:25:00,
2013-06-02 04:40:00,64.3,29.0,29.71,East,91,19.0,26.0,27,0.00,,,0.00,weatherlink.com 1.10,2013-06-02 10:40:00,
2013-06-02 04:55:00,64.3,29.0,29.71,East,99,13.0,24.0,27,0.00,,,0.00,weatherlink.com 1.10,2013-06-02 10:55:00,
2013-06-02 05:10:00,63.9,30.0,29.71,ESE,107,5.0,21.0,28,0.00,,,0.00,weatherlink.com 1.10,2013-06-02 11:10:00,
2013-06-02 05:25:00,63.8,30.0,29.71,East,89,10.0,22.0,28,0.00,,,0.00,weatherlink.com 1.10,2013-06-02 11:25:00,
2013-06-02 05:40:00,63.5,30.0,29.72,ESE,113,8.0,24.0,28,0.00,,,0.00,weatherlink.com 1.10,2013-06-02 11:40:00,
2013-06-02 05:55:00,63.4,30.0,29.72,ENE,67,13.0,24.0,28,0.00,,,0.00,weatherlink.com 1.10,2013-06-02 11:55:00,
2013-06-02 06:10:00,62.9,29.0,29.73,East,86,7.0,22.0,28,0.00,,,0.00,weatherlink.com 1.10,2013-06-02 12:10:00,
2013-06-02 06:25:00,62.8,30.0,29.73,East,80,7.0,24.0,29,0.00,,,0.00,weatherlink.com 1.10,2013-06-02 12:25:00,
2013-06-02 06:40:00,62.3,29.0,29.73,ENE,74,21.0,26.0,29,0.00,,,0.00,weatherlink.com 1.10,2013-06-02 12:40:00,
2013-06-02 06:55:00,62.1,30.0,29.73,ENE,61,9.0,25.0,30,0.00,,,0.00,weatherlink.com 1.10,2013-06-02 12:55:00,
2013-06-02 07:11:00,62.1,31.0,29.74,East,90,14.0,23.0,31,0.00,,,0.00,weatherlink.com 1.10,2013-06-02 13:11:00,
2013-06-02 07:26:00,62.5,31.0,29.74,East,94,8.0,22.0,31,0.00,,,0.00,weatherlink.com 1.10,2013-06-02 13:26:00,
2013-06-02 07:41:00,63.2,32.0,29.74,NE,50,6.0,23.0,31,0.00,,,0.00,weatherlink.com 1.10,2013-06-02 13:41:00,
2013-06-02 07:56:00,64.3,32.0,29.75,East,80,7.0,17.0,30,0.00,,,0.00,weatherlink.com 1.10,2013-06-02 13:56:00,
2013-06-02 08:11:00,64.7,32.0,29.75,ENE,75,7.0,22.0,30,0.00,,,0.00,weatherlink.com 1.10,2013-06-02 14:11:00,
2013-06-02 08:26:00,65.8,33.0,29.74,East,79,15.0,21.0,29,0.00,,,0.00,weatherlink.com 1.10,2013-06-02 14:26:00,
2013-06-02 08:41:00,67.9,33.0,29.74,SE,137,5.0,17.0,27,0.00,,,0.00,weatherlink.com 1.10,2013-06-02 14:41:00,
2013-06-02 08:56:00,68.8,33.0,29.74,East,82,9.0,16.0,27,0.00,,,0.00,weatherlink.com 1.10,2013-06-02 14:56:00,
2013-06-02 09:11:00,70.2,34.0,29.74,East,98,8.0,16.0,26,0.00,,,0.00,weatherlink.com 1.10,2013-06-02 15:11:00,
2013-06-02 09:26:00,71.7,34.0,29.74,SE,132,6.0,12.0,25,0.00,,,0.00,weatherlink.com 1.10,2013-06-02 15:26:00,
2013-06-02 09:41:00,72.8,34.0,29.73,East,96,2.0,11.0,24,0.00,,,0.00,weatherlink.com 1.10,2013-06-02 15:41:00,
2013-06-02 09:56:00,74.1,34.0,29.73,ENE,76,3.0,11.0,23,0.00,,,0.00,weatherlink.com 1.10,2013-06-02 15:56:00,
2013-06-02 10:11:00,75.6,35.0,29.72,ENE,60,5.0,10.0,23,0.00,,,0.00,weatherlink.com 1.10,2013-06-02 16:11:00,
2013-06-02 10:26:00,77.0,34.0,29.71,NE,55,3.0,11.0,21,0.00,,,0.00,weatherlink.com 1.10,2013-06-02 16:26:00,
2013-06-02 10:41:00,78.0,32.0,29.72,SSW,194,0.0,11.0,19,0.00,,,0.00,weatherlink.com 1.10,2013-06-02 16:41:00,
2013-06-02 10:56:00,78.9,33.0,29.71,ESE,123,4.0,8.0,19,0.00,,,0.00,weatherlink.com 1.10,2013-06-02 16:56:00,
2013-06-02 11:11:00,79.7,33.0,29.70,SSW,201,2.0,8.0,18,0.00,,,0.00,weatherlink.com 1.10,2013-06-02 17:11:00,
2013-06-02 11:26:00,80.1,33.0,29.70,South,185,0.0,9.0,18,0.00,,,0.00,weatherlink.com 1.10,2013-06-02 17:26:00,
2013-06-02 11:41:00,80.8,33.0,29.69,SSW,204,0.0,9.0,18,0.00,,,0.00,weatherlink.com 1.10,2013-06-02 17:41:00,
2013-06-02 11:56:00,81.1,32.0,29.69,SSW,198,0.0,7.0,17,0.00,,,0.00,weatherlink.com 1.10,2013-06-02 17:56:00,
2013-06-02 12:11:00,81.5,34.0,29.68,SW,219,4.0,8.0,18,0.00,,,0.00,weatherlink.com 1.10,2013-06-02 18:11:00,
2013-06-02 12:26:00,82.3,35.0,29.67,SW,231,2.0,10.0,18,0.00,,,0.00,weatherlink.com 1.10,2013-06-02 18:26:00,
2013-06-02 12:41:00,83.2,34.0,29.65,East,96,0.0,7.0,17,0.00,,,0.00,weatherlink.com 1.10,2013-06-02 18:41:00,
2013-06-02 12:56:00,84.7,34.0,29.64,SSE,165,0.0,11.0,16,0.00,,,0.00,weatherlink.com 1.10,2013-06-02 18:56:00,
2013-06-02 13:11:00,85.5,34.0,29.63,SSW,198,4.0,6.0,16,0.00,,,0.00,weatherlink.com 1.10,2013-06-02 19:11:00,
2013-06-02 13:27:00,85.9,35.0,29.62,WSW,249,0.0,14.0,16,0.00,,,0.00,weatherlink.com 1.10,2013-06-02 19:27:00,
2013-06-02 13:42:00,85.5,34.0,29.61,WSW,258,3.0,9.0,16,0.00,,,0.00,weatherlink.com 1.10,2013-06-02 19:42:00,
2013-06-02 13:57:00,87.9,36.0,29.59,South,182,7.0,9.0,16,0.00,,,0.00,weatherlink.com 1.10,2013-06-02 19:57:00,
2013-06-02 14:12:00,87.6,38.0,29.58,South,176,0.0,9.0,17,0.00,,,0.00,weatherlink.com 1.10,2013-06-02 20:12:00,
2013-06-02 14:27:00,88.5,37.0,29.56,SSW,211,4.0,8.0,16,0.00,,,0.00,weatherlink.com 1.10,2013-06-02 20:27:00,
2013-06-02 14:42:00,88.7,37.0,29.55,South,177,4.0,14.0,16,0.00,,,0.00,weatherlink.com 1.10,2013-06-02 20:42:00,
2013-06-02 14:57:00,86.5,37.0,29.54,WNW,296,0.0,6.0,17,0.00,,,0.00,weatherlink.com 1.10,2013-06-02 20:57:00,
2013-06-02 15:12:00,84.9,37.0,29.54,North,351,2.0,7.0,18,0.00,,,0.00,weatherlink.com 1.10,2013-06-02 21:12:00,
2013-06-02 15:27:00,83.9,39.0,29.56,WNW,283,6.0,11.0,20,0.00,,,0.00,weatherlink.com 1.10,2013-06-02 21:27:00,
2013-06-02 15:42:00,81.5,31.0,29.55,West,275,0.0,44.0,16,0.00,,,0.00,weatherlink.com 1.10,2013-06-02 21:42:00,
2013-06-02 15:57:00,81.6,31.0,29.57,SSW,198,10.0,22.0,16,0.00,,,0.00,weatherlink.com 1.10,2013-06-02 21:57:00,
2013-06-02 16:12:00,76.3,51.0,29.55,SSE,160,3.0,5.0,41,0.03,,,0.03,weatherlink.com 1.10,2013-06-02 22:12:00,
2013-06-02 16:27:00,74.7,54.0,29.53,SE,138,0.0,3.0,48,0.03,,,0.03,weatherlink.com 1.10,2013-06-02 22:27:00,
2013-06-02 16:42:00,74.8,45.0,29.52,ENE,78,0.0,3.0,35,0.03,,,0.03,weatherlink.com 1.10,2013-06-02 22:42:00,
2013-06-02 16:57:00,76.3,43.0,29.51,East,88,0.0,7.0,30,0.03,,,0.03,weatherlink.com 1.10,2013-06-02 22:57:00,
2013-06-02 17:12:00,76.7,41.0,29.51,SE,124,2.0,7.0,28,0.00,,,0.03,weatherlink.com 1.10,2013-06-02 23:12:00,
2013-06-02 17:27:00,77.1,45.0,29.50,North,11,1.0,6.0,32,0.00,,,0.03,weatherlink.com 1.10,2013-06-02 23:27:00,
2013-06-02 17:42:00,79.6,39.0,29.50,SE,146,3.0,15.0,23,0.00,,,0.03,weatherlink.com 1.10,2013-06-02 23:42:00,
2013-06-02 17:57:00,79.4,38.0,29.50,SE,126,3.0,10.0,23,0.00,,,0.03,weatherlink.com 1.10,2013-06-02 23:57:00,
2013-06-02 18:12:00,79.5,45.0,29.50,SSE,150,3.0,6.0,30,0.00,,,0.03,weatherlink.com 1.10,2013-06-03 00:12:00,
2013-06-02 18:27:00,79.0,44.0,29.48,ENE,60,2.0,9.0,29,0.00,,,0.03,weatherlink.com 1.10,2013-06-03 00:27:00,
2013-06-02 18:42:00,78.7,44.0,29.49,ESE,108,3.0,11.0,29,0.00,,,0.03,weatherlink.com 1.10,2013-06-03 00:42:00,
2013-06-02 18:57:00,79.8,47.0,29.49,SSE,149,3.0,7.0,32,0.00,,,0.03,weatherlink.com 1.10,2013-06-03 00:57:00,
2013-06-02 19:12:00,79.4,44.0,29.48,East,83,6.0,8.0,29,0.00,,,0.03,weatherlink.com 1.10,2013-06-03 01:12:00,
2013-06-02 19:27:00,78.3,44.0,29.48,SE,130,3.0,8.0,30,0.00,,,0.03,weatherlink.com 1.10,2013-06-03 01:27:00,
2013-06-02 19:42:00,77.7,45.0,29.48,SE,133,3.0,5.0,31,0.00,,,0.03,weatherlink.com 1.10,2013-06-03 01:42:00,
2013-06-02 19:57:00,77.2,44.0,29.47,SE,135,0.0,6.0,31,0.00,,,0.03,weatherlink.com 1.10,2013-06-03 01:57:00,
2013-06-02 20:12:00,76.1,44.0,29.47,SE,132,0.0,2.0,32,0.00,,,0.03,weatherlink.com 1.10,2013-06-03 02:12:00,
2013-06-02 20:27:00,74.8,44.0,29.48,SE,132,0.0,2.0,33,0.00,,,0.03,weatherlink.com 1.10,2013-06-03 02:27:00,
2013-06-02 20:42:00,74.6,44.0,29.48,ESE,102,2.0,7.0,33,0.00,,,0.03,weatherlink.com 1.10,2013-06-03 02:42:00,
2013-06-02 20:57:00,74.8,44.0,29.48,East,92,9.0,11.0,33,0.00,,,0.03,weatherlink.com 1.10,2013-06-03 02:57:00,
2013-06-02 21:12:00,74.1,42.0,29.49,ESE,105,1.0,10.0,32,0.00,,,0.03,weatherlink.com 1.10,2013-06-03 03:12:00,
2013-06-02 21:27:00,73.5,43.0,29.49,ESE,121,0.0,8.0,33,0.00,,,0.03,weatherlink.com 1.10,2013-06-03 03:27:00,
2013-06-02 21:42:00,73.2,42.0,29.50,East,88,1.0,9.0,33,0.00,,,0.03,weatherlink.com 1.10,2013-06-03 03:42:00,
2013-06-02 21:57:00,73.0,42.0,29.50,ENE,63,0.0,6.0,33,0.00,,,0.03,weatherlink.com 1.10,2013-06-03 03:57:00,
2013-06-02 22:12:00,72.9,42.0,29.51,ENE,57,0.0,4.0,33,0.00,,,0.03,weatherlink.com 1.10,2013-06-03 04:12:00,
2013-06-02 22:27:00,72.4,42.0,29.52,NNE,30,0.0,4.0,34,0.00,,,0.03,weatherlink.com 1.10,2013-06-03 04:27:00,
2013-06-02 22:42:00,72.6,42.0,29.52,NNE,22,0.0,5.0,33,0.00,,,0.03,weatherlink.com 1.10,2013-06-03 04:42:00,
2013-06-02 22:57:00,71.9,43.0,29.53,NNE,22,0.0,1.0,35,0.00,,,0.03,weatherlink.com 1.10,2013-06-03 04:57:00,
2013-06-02 23:12:00,71.5,42.0,29.54,NE,38,0.0,2.0,34,0.00,,,0.03,weatherlink.com 1.10,2013-06-03 05:12:00,
2013-06-02 23:27:00,71.3,42.0,29.54,NE,38,0.0,0.0,35,0.00,,,0.03,weatherlink.com 1.10,2013-06-03 05:27:00,
2013-06-02 23:42:00,71.3,43.0,29.55,East,87,2.0,9.0,36,0.00,,,0.03,weatherlink.com 1.10,2013-06-03 05:42:00,
2013-06-02 23:57:00,70.7,43.0,29.55,ENE,68,2.0,8.0,37,0.00,,,0.03,weatherlink.com 1.10,2013-06-03 05:57:00,